createdAt,value
2018-10-17T00:00:52.045Z,0
2018-10-17T00:01:51.726Z,0
2018-10-17T00:02:51.712Z,0
2018-10-17T00:03:51.959Z,0
2018-10-17T00:04:51.695Z,0
2018-10-17T00:05:51.424Z,0
2018-10-17T00:06:51.924Z,0
2018-10-17T00:07:51.664Z,0
2018-10-17T00:08:51.903Z,0
2018-10-17T00:09:51.636Z,0
2018-10-17T00:10:51.889Z,0
2018-10-17T00:11:51.879Z,0
2018-10-17T00:12:51.874Z,0
2018-10-17T00:13:51.590Z,0
2018-10-17T00:14:51.424Z,0
2018-10-17T00:15:51.575Z,0
2018-10-17T00:16:51.816Z,0
2018-10-17T00:17:51.801Z,0
2018-10-17T00:18:51.548Z,0
2018-10-17T00:19:51.779Z,0
2018-10-17T00:20:51.516Z,0
2018-10-17T00:21:51.811Z,0
2018-10-17T00:22:51.525Z,0
2018-10-17T00:23:51.734Z,0
2018-10-17T00:24:51.505Z,0
2018-10-17T00:25:51.456Z,0
2018-10-17T00:26:51.702Z,0
2018-10-17T00:27:51.445Z,0
2018-10-17T00:28:51.715Z,0
2018-10-17T00:29:51.413Z,0
2018-10-17T00:30:51.652Z,0
2018-10-17T00:31:51.651Z,0
2018-10-17T00:32:51.376Z,0
2018-10-17T00:33:51.617Z,0
2018-10-17T00:34:51.654Z,0
2018-10-17T00:35:51.601Z,0
2018-10-17T00:36:51.379Z,0
2018-10-17T00:37:51.586Z,0
2018-10-17T00:38:51.561Z,0
2018-10-17T00:39:51.551Z,0
2018-10-17T00:40:51.555Z,0
2018-10-17T00:41:51.277Z,0
2018-10-17T00:42:51.530Z,0
2018-10-17T00:43:50.999Z,0
2018-10-17T00:44:51.241Z,0
2018-10-17T00:45:51.483Z,0
2018-10-17T00:46:51.247Z,0
2018-10-17T00:47:51.460Z,0
2018-10-17T00:48:51.461Z,0
2018-10-17T00:49:51.446Z,0
2018-10-17T00:50:51.435Z,0
2018-10-17T00:51:50.904Z,0
2018-10-17T00:52:51.151Z,0
2018-10-17T00:53:51.392Z,0
2018-10-17T00:54:51.381Z,0
2018-10-17T00:55:51.368Z,0
2018-10-17T00:56:51.358Z,0
2018-10-17T00:57:51.098Z,0
2018-10-17T00:58:50.829Z,0
2018-10-17T00:59:51.068Z,0
2018-10-17T01:00:50.558Z,0
2018-10-17T01:01:51.054Z,0
2018-10-17T01:02:51.292Z,0
2018-10-17T01:03:51.284Z,0
2018-10-17T01:04:51.304Z,0
2018-10-17T01:05:51.255Z,0
2018-10-17T01:06:51.321Z,0
2018-10-17T01:07:51.233Z,0
2018-10-17T01:08:51.223Z,0
2018-10-17T01:09:50.960Z,0
2018-10-17T01:10:51.204Z,0
2018-10-17T01:11:50.997Z,0
2018-10-17T01:12:51.221Z,0
2018-10-17T01:13:51.165Z,0
2018-10-17T01:14:51.154Z,0
2018-10-17T01:15:50.884Z,0
2018-10-17T01:16:51.179Z,0
2018-10-17T01:17:51.122Z,0
2018-10-17T01:18:50.598Z,0
2018-10-17T01:19:50.843Z,0
2018-10-17T01:20:51.091Z,0
2018-10-17T01:21:51.078Z,0
2018-10-17T01:22:51.086Z,0
2018-10-17T01:23:51.054Z,0
2018-10-17T01:24:51.049Z,0
2018-10-17T01:25:51.025Z,0
2018-10-17T01:26:50.764Z,0
2018-10-17T01:27:50.492Z,0
2018-10-17T01:28:50.990Z,0
2018-10-17T01:29:50.472Z,0
2018-10-17T01:30:50.972Z,0
2018-10-17T01:31:50.446Z,0
2018-10-17T01:32:50.951Z,0
2018-10-17T01:33:50.931Z,0
2018-10-17T01:34:50.922Z,0
2018-10-17T01:35:50.911Z,0
2018-10-17T01:36:50.944Z,0
2018-10-17T01:37:50.377Z,0
2018-10-17T01:38:50.625Z,0
2018-10-17T01:39:50.611Z,0
2018-10-17T01:40:50.885Z,0
2018-10-17T01:41:50.885Z,0
2018-10-17T01:42:50.913Z,0
2018-10-17T01:43:50.822Z,0
2018-10-17T01:44:50.826Z,0
2018-10-17T01:45:50.559Z,0
2018-10-17T01:46:50.785Z,0
2018-10-17T01:47:50.517Z,0
2018-10-17T01:48:50.767Z,0
2018-10-17T01:49:50.498Z,0
2018-10-17T01:50:50.734Z,0
2018-10-17T01:51:50.469Z,0
2018-10-17T01:52:50.456Z,0
2018-10-17T01:53:50.713Z,0
2018-10-17T01:54:50.431Z,0
2018-10-17T01:55:50.422Z,0
2018-10-17T01:56:50.677Z,0
2018-10-17T01:57:50.655Z,0
2018-10-17T01:58:50.657Z,0
2018-10-17T01:59:50.633Z,0
2018-10-17T02:00:50.363Z,0
2018-10-17T02:01:50.616Z,0
2018-10-17T02:02:50.594Z,0
2018-10-17T02:03:50.586Z,0
2018-10-17T02:04:50.572Z,0
2018-10-17T02:05:50.561Z,0
2018-10-17T02:06:50.290Z,0
2018-10-17T02:07:50.284Z,0
2018-10-17T02:08:50.523Z,0
2018-10-17T02:09:50.260Z,0
2018-10-17T02:10:50.255Z,0
2018-10-17T02:11:50.488Z,0
2018-10-17T02:12:49.969Z,0
2018-10-17T02:13:50.462Z,0
2018-10-17T02:14:50.453Z,0
2018-10-17T02:15:50.440Z,0
2018-10-17T02:16:50.427Z,0
2018-10-17T02:17:50.423Z,0
2018-10-17T02:18:50.406Z,0
2018-10-17T02:19:50.144Z,0
2018-10-17T02:20:50.388Z,0
2018-10-17T02:21:50.119Z,0
2018-10-17T02:22:50.364Z,0
2018-10-17T02:23:50.357Z,0
2018-10-17T02:24:49.828Z,0
2018-10-17T02:25:49.814Z,0
2018-10-17T02:26:50.312Z,0
2018-10-17T02:27:50.041Z,0
2018-10-17T02:28:50.288Z,0
2018-10-17T02:29:50.476Z,0
2018-10-17T02:30:50.031Z,0
2018-10-17T02:31:50.014Z,0
2018-10-17T02:32:49.995Z,0
2018-10-17T02:33:50.252Z,0
2018-10-17T02:34:50.220Z,0
2018-10-17T02:35:50.213Z,0
2018-10-17T02:36:50.203Z,0
2018-10-17T02:37:50.196Z,0
2018-10-17T02:38:49.666Z,0
2018-10-17T02:39:50.424Z,0
2018-10-17T02:40:49.890Z,0
2018-10-17T02:41:49.878Z,0
2018-10-17T02:42:49.865Z,0
2018-10-17T02:43:50.112Z,0
2018-10-17T02:44:50.101Z,0
2018-10-17T02:45:50.091Z,0
2018-10-17T02:46:49.561Z,0
2018-10-17T02:47:50.075Z,0
2018-10-17T02:48:50.058Z,0
2018-10-17T02:49:50.042Z,0
2018-10-17T02:50:49.518Z,0
2018-10-17T02:51:49.509Z,0
2018-10-17T02:52:49.748Z,0
2018-10-17T02:53:50.005Z,0
2018-10-17T02:54:49.726Z,0
2018-10-17T02:55:49.971Z,0
2018-10-17T02:56:49.457Z,0
2018-10-17T02:57:49.947Z,0
2018-10-17T02:58:49.937Z,0
2018-10-17T02:59:49.926Z,0
2018-10-17T03:00:49.925Z,0
2018-10-17T03:01:49.909Z,0
2018-10-17T03:02:49.884Z,0
2018-10-17T03:03:49.876Z,0
2018-10-17T03:04:49.866Z,0
2018-10-17T03:05:49.893Z,0
2018-10-17T03:06:49.856Z,0
2018-10-17T03:07:49.835Z,0
2018-10-17T03:08:49.831Z,0
2018-10-17T03:09:49.802Z,0
2018-10-17T03:10:49.799Z,0
2018-10-17T03:11:49.789Z,0
2018-10-17T03:12:49.518Z,0
2018-10-17T03:13:49.501Z,0
2018-10-17T03:14:49.772Z,0
2018-10-17T03:15:49.482Z,0
2018-10-17T03:16:49.462Z,0
2018-10-17T03:17:49.773Z,0
2018-10-17T03:18:49.439Z,0
2018-10-17T03:19:49.433Z,0
2018-10-17T03:20:49.671Z,0
2018-10-17T03:21:49.656Z,0
2018-10-17T03:22:49.663Z,0
2018-10-17T03:23:49.642Z,0
2018-10-17T03:24:49.367Z,0
2018-10-17T03:25:49.103Z,0
2018-10-17T03:26:49.607Z,0
2018-10-17T03:27:49.788Z,0
2018-10-17T03:28:49.572Z,0
2018-10-17T03:29:49.310Z,0
2018-10-17T03:30:49.307Z,0
2018-10-17T03:31:49.283Z,0
2018-10-17T03:32:49.548Z,0
2018-10-17T03:33:49.514Z,0
2018-10-17T03:34:48.993Z,0
2018-10-17T03:35:49.384Z,0
2018-10-17T03:36:49.475Z,0
2018-10-17T03:37:49.211Z,0
2018-10-17T03:38:49.456Z,0
2018-10-17T03:39:49.187Z,0
2018-10-17T03:40:49.439Z,0
2018-10-17T03:41:49.415Z,0
2018-10-17T03:42:49.406Z,0
2018-10-17T03:43:49.401Z,0
2018-10-17T03:44:49.377Z,0
2018-10-17T03:45:49.114Z,0
2018-10-17T03:46:49.373Z,0
2018-10-17T03:47:49.104Z,0
2018-10-17T03:48:49.335Z,0
2018-10-17T03:49:49.181Z,0
2018-10-17T03:50:49.312Z,0
2018-10-17T03:51:48.797Z,0
2018-10-17T03:52:48.774Z,0
2018-10-17T03:53:49.278Z,0
2018-10-17T03:54:49.257Z,0
2018-10-17T03:55:49.246Z,0
2018-10-17T03:56:48.975Z,0
2018-10-17T03:57:49.221Z,0
2018-10-17T03:58:49.208Z,0
2018-10-17T03:59:49.861Z,0
2018-10-17T04:00:48.935Z,0
2018-10-17T04:01:49.175Z,0
2018-10-17T04:02:48.972Z,0
2018-10-17T04:03:48.892Z,0
2018-10-17T04:04:49.148Z,0
2018-10-17T04:05:49.133Z,0
2018-10-17T04:06:48.860Z,0
2018-10-17T04:07:49.097Z,0
2018-10-17T04:08:49.082Z,0
2018-10-17T04:09:49.076Z,0
2018-10-17T04:10:49.059Z,0
2018-10-17T04:11:49.045Z,0
2018-10-17T04:12:48.783Z,0
2018-10-17T04:13:48.776Z,0
2018-10-17T04:14:48.754Z,0
2018-10-17T04:15:49.001Z,0
2018-10-17T04:16:48.727Z,0
2018-10-17T04:17:48.976Z,0
2018-10-17T04:18:49.006Z,0
2018-10-17T04:19:48.944Z,0
2018-10-17T04:20:48.951Z,0
2018-10-17T04:21:48.922Z,0
2018-10-17T04:22:49.526Z,0
2018-10-17T04:23:48.895Z,0
2018-10-17T04:24:48.652Z,0
2018-10-17T04:25:48.869Z,0
2018-10-17T04:26:48.600Z,0
2018-10-17T04:27:48.600Z,0
2018-10-17T04:28:48.596Z,0
2018-10-17T04:29:48.311Z,0
2018-10-17T04:30:48.300Z,0
2018-10-17T04:31:48.293Z,0
2018-10-17T04:32:48.787Z,0
2018-10-17T04:33:48.772Z,0
2018-10-17T04:34:48.762Z,0
2018-10-17T04:35:48.506Z,0
2018-10-17T04:36:48.490Z,0
2018-10-17T04:37:48.728Z,0
2018-10-17T04:38:48.713Z,0
2018-10-17T04:39:48.443Z,0
2018-10-17T04:40:48.694Z,0
2018-10-17T04:41:48.429Z,0
2018-10-17T04:42:48.659Z,0
2018-10-17T04:43:48.141Z,0
2018-10-17T04:44:48.644Z,0
2018-10-17T04:45:48.626Z,0
2018-10-17T04:46:48.357Z,0
2018-10-17T04:47:49.318Z,0
2018-10-17T04:48:48.332Z,0
2018-10-17T04:49:48.601Z,0
2018-10-17T04:50:48.561Z,0
2018-10-17T04:51:48.577Z,0
2018-10-17T04:52:48.539Z,0
2018-10-17T04:53:48.526Z,0
2018-10-17T04:54:48.532Z,0
2018-10-17T04:55:48.244Z,0
2018-10-17T04:56:48.233Z,0
2018-10-17T04:57:48.482Z,0
2018-10-17T04:58:48.464Z,0
2018-10-17T04:59:48.457Z,0
2018-10-17T05:00:48.185Z,0
2018-10-17T05:01:48.434Z,0
2018-10-17T05:02:48.425Z,0
2018-10-17T05:03:48.403Z,0
2018-10-17T05:04:48.436Z,0
2018-10-17T05:05:48.392Z,4
2018-10-17T05:06:48.277Z,4
2018-10-17T05:07:48.100Z,0
2018-10-17T05:08:48.340Z,4
2018-10-17T05:09:48.104Z,4
2018-10-17T05:10:48.341Z,4
2018-10-17T05:11:48.305Z,4
2018-10-17T05:12:48.044Z,8
2018-10-17T05:13:48.280Z,8
2018-10-17T05:14:48.267Z,8
2018-10-17T05:15:48.262Z,12
2018-10-17T05:16:48.242Z,16
2018-10-17T05:17:47.985Z,16
2018-10-17T05:18:48.221Z,20
2018-10-17T05:19:47.958Z,24
2018-10-17T05:20:48.198Z,28
2018-10-17T05:21:48.191Z,32
2018-10-17T05:22:48.172Z,36
2018-10-17T05:23:47.905Z,40
2018-10-17T05:24:48.149Z,44
2018-10-17T05:25:47.885Z,52
2018-10-17T05:26:48.130Z,64
2018-10-17T05:27:48.109Z,72
2018-10-17T05:28:47.843Z,80
2018-10-17T05:29:48.564Z,92
2018-10-17T05:30:47.817Z,104
2018-10-17T05:31:48.074Z,112
2018-10-17T05:32:48.054Z,128
2018-10-17T05:33:47.786Z,140
2018-10-17T05:34:48.025Z,152
2018-10-17T05:35:47.758Z,172
2018-10-17T05:36:48.007Z,188
2018-10-17T05:37:48.549Z,204
2018-10-17T05:38:47.979Z,224
2018-10-17T05:39:47.966Z,244
2018-10-17T05:40:47.945Z,264
2018-10-17T05:41:47.681Z,280
2018-10-17T05:42:47.677Z,304
2018-10-17T05:43:47.919Z,328
2018-10-17T05:44:47.652Z,352
2018-10-17T05:45:47.890Z,376
2018-10-17T05:46:47.875Z,400
2018-10-17T05:47:47.865Z,428
2018-10-17T05:48:47.593Z,456
2018-10-17T05:49:47.847Z,484
2018-10-17T05:50:47.582Z,512
2018-10-17T05:51:47.823Z,540
2018-10-17T05:52:47.824Z,568
2018-10-17T05:53:47.794Z,596
2018-10-17T05:54:47.787Z,624
2018-10-17T05:55:47.254Z,656
2018-10-17T05:56:47.497Z,688
2018-10-17T05:57:47.488Z,716
2018-10-17T05:58:47.731Z,748
2018-10-17T05:59:47.722Z,780
2018-10-17T06:00:47.704Z,812
2018-10-17T06:01:47.639Z,840
2018-10-17T06:02:47.685Z,876
2018-10-17T06:03:47.664Z,912
2018-10-17T06:04:47.396Z,948
2018-10-17T06:05:47.643Z,988
2018-10-17T06:06:47.386Z,1024
2018-10-17T06:07:47.357Z,1060
2018-10-17T06:08:47.354Z,1100
2018-10-17T06:09:47.336Z,1132
2018-10-17T06:10:47.066Z,1164
2018-10-17T06:11:47.569Z,1200
2018-10-17T06:12:47.548Z,1228
2018-10-17T06:13:47.547Z,1260
2018-10-17T06:14:47.278Z,1292
2018-10-17T06:15:47.516Z,1316
2018-10-17T06:16:47.758Z,1348
2018-10-17T06:17:47.238Z,1380
2018-10-17T06:18:47.496Z,1404
2018-10-17T06:19:47.208Z,1436
2018-10-17T06:20:47.200Z,1460
2018-10-17T06:21:47.445Z,1492
2018-10-17T06:22:47.426Z,1516
2018-10-17T06:23:47.157Z,1548
2018-10-17T06:24:47.425Z,1572
2018-10-17T06:25:47.391Z,1600
2018-10-17T06:26:47.377Z,1632
2018-10-17T06:27:47.117Z,1656
2018-10-17T06:28:47.357Z,1684
2018-10-17T06:29:47.084Z,1712
2018-10-17T06:30:47.775Z,1740
2018-10-17T06:31:47.312Z,1768
2018-10-17T06:32:47.058Z,1796
2018-10-17T06:33:47.126Z,1820
2018-10-17T06:34:47.753Z,1848
2018-10-17T06:35:47.262Z,1880
2018-10-17T06:36:47.014Z,1908
2018-10-17T06:37:47.246Z,1936
2018-10-17T06:38:46.717Z,1960
2018-10-17T06:39:47.214Z,1980
2018-10-17T06:40:47.211Z,2004
2018-10-17T06:41:47.197Z,2024
2018-10-17T06:42:46.924Z,2044
2018-10-17T06:43:48.117Z,2064
2018-10-17T06:44:46.902Z,2084
2018-10-17T06:45:46.982Z,2100
2018-10-17T06:46:47.145Z,2116
2018-10-17T06:47:47.124Z,2136
2018-10-17T06:48:47.127Z,2152
2018-10-17T06:49:46.581Z,2168
2018-10-17T06:50:46.827Z,2184
2018-10-17T06:51:47.076Z,2204
2018-10-17T06:52:47.064Z,2220
2018-10-17T06:53:47.121Z,2240
2018-10-17T06:54:47.036Z,2256
2018-10-17T06:55:46.510Z,2276
2018-10-17T06:56:47.008Z,2292
2018-10-17T06:57:47.005Z,2312
2018-10-17T06:58:46.982Z,2332
2018-10-17T06:59:46.969Z,2348
2018-10-17T07:00:46.963Z,2368
2018-10-17T07:01:47.466Z,2388
2018-10-17T07:02:46.940Z,2408
2018-10-17T07:03:46.672Z,2428
2018-10-17T07:04:46.913Z,2452
2018-10-17T07:05:46.389Z,2476
2018-10-17T07:06:46.391Z,2496
2018-10-17T07:07:46.632Z,2524
2018-10-17T07:08:47.199Z,2552
2018-10-17T07:09:46.600Z,2592
2018-10-17T07:10:46.588Z,2636
2018-10-17T07:11:46.835Z,2692
2018-10-17T07:12:46.822Z,2752
2018-10-17T07:13:46.557Z,2820
2018-10-17T07:14:46.795Z,2900
2018-10-17T07:15:47.107Z,2992
2018-10-17T07:16:46.270Z,3100
2018-10-17T07:17:46.760Z,3224
2018-10-17T07:18:46.750Z,3356
2018-10-17T07:19:46.482Z,3432
2018-10-17T07:20:46.727Z,3456
2018-10-17T07:21:46.460Z,3512
2018-10-17T07:22:46.445Z,3612
2018-10-17T07:23:46.441Z,3668
2018-10-17T07:24:46.684Z,3728
2018-10-17T07:25:46.673Z,3720
2018-10-17T07:26:46.407Z,3608
2018-10-17T07:27:46.393Z,3512
2018-10-17T07:28:46.999Z,3448
2018-10-17T07:29:47.780Z,3360
2018-10-17T07:30:46.359Z,3260
2018-10-17T07:31:46.603Z,3236
2018-10-17T07:32:46.338Z,3272
2018-10-17T07:33:46.334Z,3388
2018-10-17T07:34:46.573Z,3488
2018-10-17T07:35:47.000Z,3580
2018-10-17T07:36:46.551Z,3696
2018-10-17T07:37:46.541Z,3844
2018-10-17T07:38:46.273Z,3980
2018-10-17T07:39:46.531Z,4180
2018-10-17T07:40:46.008Z,4388
2018-10-17T07:41:46.501Z,4528
2018-10-17T07:42:46.488Z,4656
2018-10-17T07:43:46.482Z,4792
2018-10-17T07:44:46.469Z,4924
2018-10-17T07:45:46.417Z,5100
2018-10-17T07:46:46.444Z,5268
2018-10-17T07:47:46.183Z,5348
2018-10-17T07:48:46.180Z,5512
2018-10-17T07:49:46.415Z,5624
2018-10-17T07:50:46.408Z,5712
2018-10-17T07:51:46.404Z,5812
2018-10-17T07:52:46.205Z,5824
2018-10-17T07:53:46.476Z,5716
2018-10-17T07:54:46.372Z,5572
2018-10-17T07:55:46.360Z,5420
2018-10-17T07:56:46.362Z,5236
2018-10-17T07:57:46.357Z,5012
2018-10-17T07:58:46.085Z,4744
2018-10-17T07:59:46.652Z,4416
2018-10-17T08:00:46.313Z,4244
2018-10-17T08:01:46.307Z,4200
2018-10-17T08:02:46.046Z,4264
2018-10-17T08:03:46.303Z,4328
2018-10-17T08:04:46.025Z,4380
2018-10-17T08:05:46.020Z,4532
2018-10-17T08:06:46.961Z,4788
2018-10-17T08:07:45.745Z,5036
2018-10-17T08:08:46.243Z,5412
2018-10-17T08:09:46.250Z,5836
2018-10-17T08:10:45.985Z,6088
2018-10-17T08:11:46.239Z,6268
2018-10-17T08:12:46.221Z,6348
2018-10-17T08:13:45.954Z,6356
2018-10-17T08:14:46.201Z,6288
2018-10-17T08:15:46.198Z,6220
2018-10-17T08:16:45.923Z,6296
2018-10-17T08:17:45.916Z,6480
2018-10-17T08:18:46.173Z,6560
2018-10-17T08:19:46.159Z,6704
2018-10-17T08:20:46.147Z,6860
2018-10-17T08:21:46.143Z,6908
2018-10-17T08:22:45.886Z,7060
2018-10-17T08:23:46.139Z,7180
2018-10-17T08:24:45.867Z,7084
2018-10-17T08:25:45.856Z,7124
2018-10-17T08:26:45.856Z,7116
2018-10-17T08:27:45.845Z,7048
2018-10-17T08:28:46.092Z,6968
2018-10-17T08:29:46.091Z,6900
2018-10-17T08:30:46.140Z,6832
2018-10-17T08:31:46.069Z,6660
2018-10-17T08:32:46.074Z,6576
2018-10-17T08:33:45.802Z,6600
2018-10-17T08:34:46.070Z,6508
2018-10-17T08:35:46.169Z,6464
2018-10-17T08:36:47.560Z,6488
2018-10-17T08:37:47.616Z,6524
2018-10-17T08:38:45.769Z,6524
2018-10-17T08:39:46.023Z,6556
2018-10-17T08:40:46.063Z,6500
2018-10-17T08:41:46.010Z,6372
2018-10-17T08:42:46.009Z,6268
2018-10-17T08:43:45.746Z,6296
2018-10-17T08:44:45.734Z,6328
2018-10-17T08:45:45.733Z,6372
2018-10-17T08:46:45.978Z,6432
2018-10-17T08:47:45.721Z,6516
2018-10-17T08:48:45.966Z,6600
2018-10-17T08:49:45.964Z,6572
2018-10-17T08:50:46.057Z,6600
2018-10-17T08:51:45.441Z,6532
2018-10-17T08:52:45.435Z,6548
2018-10-17T08:53:45.688Z,6628
2018-10-17T08:54:45.687Z,6596
2018-10-17T08:55:45.926Z,6452
2018-10-17T08:56:45.921Z,6100
2018-10-17T08:57:45.857Z,6024
2018-10-17T08:58:45.923Z,5988
2018-10-17T08:59:45.902Z,5948
2018-10-17T09:00:45.910Z,5904
2018-10-17T09:01:45.896Z,5780
2018-10-17T09:02:45.887Z,5648
2018-10-17T09:03:45.633Z,5700
2018-10-17T09:04:45.878Z,5816
2018-10-17T09:05:45.886Z,5652
2018-10-17T09:06:45.867Z,5556
2018-10-17T09:07:46.316Z,5452
2018-10-17T09:08:45.603Z,5308
2018-10-17T09:09:45.851Z,5160
2018-10-17T09:10:45.850Z,5104
2018-10-17T09:11:45.849Z,5096
2018-10-17T09:12:45.845Z,5108
2018-10-17T09:13:45.719Z,5024
2018-10-17T09:14:45.827Z,4952
2018-10-17T09:15:45.567Z,4780
2018-10-17T09:16:46.051Z,4616
2018-10-17T09:17:45.813Z,4576
2018-10-17T09:18:45.809Z,4628
2018-10-17T09:19:47.130Z,4648
2018-10-17T09:20:46.914Z,4632
2018-10-17T09:21:46.982Z,4600
2018-10-17T09:22:46.367Z,4516
2018-10-17T09:23:45.777Z,4420
2018-10-17T09:24:45.778Z,4412
2018-10-17T09:25:45.813Z,4220
2018-10-17T09:26:45.765Z,3912
2018-10-17T09:27:45.764Z,4044
2018-10-17T09:28:45.501Z,3780
2018-10-17T09:29:45.486Z,3660
2018-10-17T09:30:46.435Z,3612
2018-10-17T09:31:45.485Z,3784
2018-10-17T09:32:45.477Z,3804
2018-10-17T09:33:45.469Z,3844
2018-10-17T09:34:45.467Z,3916
2018-10-17T09:35:45.729Z,3940
2018-10-17T09:36:45.705Z,3980
2018-10-17T09:37:45.465Z,4064
2018-10-17T09:38:45.445Z,4184
2018-10-17T09:39:45.696Z,4284
2018-10-17T09:40:45.684Z,4424
2018-10-17T09:41:45.428Z,4356
2018-10-17T09:42:45.681Z,4548
2018-10-17T09:43:45.686Z,4476
2018-10-17T09:44:45.418Z,4476
2018-10-17T09:45:45.663Z,4424
2018-10-17T09:46:45.402Z,4396
2018-10-17T09:47:45.645Z,4372
2018-10-17T09:48:45.685Z,4388
2018-10-17T09:49:45.386Z,4372
2018-10-17T09:50:45.645Z,4312
2018-10-17T09:51:45.630Z,4200
2018-10-17T09:52:45.636Z,4168
2018-10-17T09:53:45.619Z,4136
2018-10-17T09:54:45.362Z,4100
2018-10-17T09:55:45.352Z,4044
2018-10-17T09:56:45.346Z,4016
2018-10-17T09:57:45.614Z,3916
2018-10-17T09:58:45.336Z,3868
2018-10-17T09:59:45.587Z,3752
2018-10-17T10:00:45.590Z,3708
2018-10-17T10:01:45.318Z,3684
2018-10-17T10:02:45.063Z,3668
2018-10-17T10:03:45.576Z,3636
2018-10-17T10:04:45.566Z,3592
2018-10-17T10:05:45.305Z,3576
2018-10-17T10:06:45.296Z,3572
2018-10-17T10:07:45.547Z,3588
2018-10-17T10:08:45.556Z,3652
2018-10-17T10:09:45.289Z,3744
2018-10-17T10:10:45.620Z,3796
2018-10-17T10:11:45.533Z,3820
2018-10-17T10:12:45.532Z,3844
2018-10-17T10:13:45.519Z,3860
2018-10-17T10:14:45.260Z,3872
2018-10-17T10:15:45.517Z,3896
2018-10-17T10:16:45.252Z,3936
2018-10-17T10:17:46.082Z,3964
2018-10-17T10:18:45.505Z,3972
2018-10-17T10:19:45.495Z,3984
2018-10-17T10:20:45.233Z,3996
2018-10-17T10:21:45.232Z,3980
2018-10-17T10:22:45.225Z,3964
2018-10-17T10:23:46.097Z,3932
2018-10-17T10:24:45.811Z,3892
2018-10-17T10:25:44.954Z,3840
2018-10-17T10:26:45.463Z,3800
2018-10-17T10:27:45.435Z,3744
2018-10-17T10:28:46.034Z,3684
2018-10-17T10:29:45.421Z,3628
2018-10-17T10:30:45.194Z,3568
2018-10-17T10:31:45.440Z,3512
2018-10-17T10:32:45.439Z,3456
2018-10-17T10:33:44.969Z,3408
2018-10-17T10:34:45.432Z,3384
2018-10-17T10:35:45.168Z,3384
2018-10-17T10:36:45.419Z,3384
2018-10-17T10:37:45.415Z,3376
2018-10-17T10:38:44.902Z,3372
2018-10-17T10:39:45.160Z,3364
2018-10-17T10:40:45.826Z,3364
2018-10-17T10:41:45.403Z,3372
2018-10-17T10:42:45.392Z,3388
2018-10-17T10:43:44.880Z,3404
2018-10-17T10:44:45.408Z,3404
2018-10-17T10:45:45.827Z,3412
2018-10-17T10:46:45.378Z,3412
2018-10-17T10:47:45.375Z,3416
2018-10-17T10:48:45.380Z,3428
2018-10-17T10:49:45.369Z,3436
2018-10-17T10:50:45.364Z,3448
2018-10-17T10:51:45.867Z,3468
2018-10-17T10:52:45.536Z,3500
2018-10-17T10:53:45.362Z,3516
2018-10-17T10:54:45.350Z,3544
2018-10-17T10:55:45.348Z,3580
2018-10-17T10:56:45.358Z,3612
2018-10-17T10:57:45.342Z,3636
2018-10-17T10:58:46.275Z,3664
2018-10-17T10:59:46.199Z,3700
2018-10-17T11:00:45.333Z,3744
2018-10-17T11:01:45.328Z,3768
2018-10-17T11:02:45.063Z,3792
2018-10-17T11:03:45.058Z,3824
2018-10-17T11:04:45.369Z,3864
2018-10-17T11:05:46.875Z,3888
2018-10-17T11:06:45.307Z,3908
2018-10-17T11:07:45.298Z,3924
2018-10-17T11:08:45.297Z,3932
2018-10-17T11:09:45.293Z,3924
2018-10-17T11:10:45.306Z,3924
2018-10-17T11:11:45.284Z,3928
2018-10-17T11:12:45.281Z,3940
2018-10-17T11:13:45.334Z,3996
2018-10-17T11:14:46.309Z,4064
2018-10-17T11:15:45.270Z,4132
2018-10-17T11:16:45.265Z,4196
2018-10-17T11:17:45.259Z,4256
2018-10-17T11:18:45.264Z,4316
2018-10-17T11:19:45.249Z,4404
2018-10-17T11:20:45.254Z,4500
2018-10-17T11:21:45.091Z,4636
2018-10-17T11:22:45.246Z,4848
2018-10-17T11:23:44.985Z,5088
2018-10-17T11:24:45.234Z,5380
2018-10-17T11:25:44.978Z,5640
2018-10-17T11:26:44.990Z,5892
2018-10-17T11:27:44.460Z,6008
2018-10-17T11:28:44.966Z,6000
2018-10-17T11:29:45.229Z,5908
2018-10-17T11:30:44.967Z,5608
2018-10-17T11:31:45.100Z,5272
2018-10-17T11:32:44.955Z,5128
2018-10-17T11:33:45.210Z,5208
2018-10-17T11:34:44.996Z,5196
2018-10-17T11:35:45.200Z,4972
2018-10-17T11:36:45.199Z,4940
2018-10-17T11:37:45.296Z,4748
2018-10-17T11:38:45.188Z,4732
2018-10-17T11:39:44.928Z,4740
2018-10-17T11:40:45.744Z,4732
2018-10-17T11:41:45.231Z,4672
2018-10-17T11:42:45.221Z,4544
2018-10-17T11:43:45.173Z,4468
2018-10-17T11:44:44.656Z,4208
2018-10-17T11:45:44.650Z,4168
2018-10-17T11:46:45.167Z,4188
2018-10-17T11:47:45.413Z,4236
2018-10-17T11:48:44.909Z,4452
2018-10-17T11:49:45.168Z,4404
2018-10-17T11:50:45.513Z,4288
2018-10-17T11:51:45.147Z,4048
2018-10-17T11:52:44.882Z,3916
2018-10-17T11:53:45.136Z,3716
2018-10-17T11:54:44.879Z,3640
2018-10-17T11:55:44.877Z,3816
2018-10-17T11:56:44.874Z,4244
2018-10-17T11:57:44.868Z,4404
2018-10-17T11:58:44.861Z,4416
2018-10-17T11:59:45.524Z,4312
2018-10-17T12:00:44.912Z,4036
2018-10-17T12:01:44.851Z,3732
2018-10-17T12:02:44.846Z,3460
2018-10-17T12:03:44.733Z,3248
2018-10-17T12:04:45.846Z,3136
2018-10-17T12:05:46.208Z,3032
2018-10-17T12:06:45.306Z,3084
2018-10-17T12:07:44.829Z,3144
2018-10-17T12:08:45.095Z,3176
2018-10-17T12:09:45.078Z,3092
2018-10-17T12:10:45.073Z,3024
2018-10-17T12:11:45.000Z,2880
2018-10-17T12:12:45.077Z,2996
2018-10-17T12:13:45.065Z,2996
2018-10-17T12:14:45.067Z,2928
2018-10-17T12:15:45.055Z,2848
2018-10-17T12:16:44.798Z,2756
2018-10-17T12:17:44.927Z,2764
2018-10-17T12:18:44.793Z,2732
2018-10-17T12:19:45.006Z,2816
2018-10-17T12:20:45.050Z,2936
2018-10-17T12:21:45.297Z,2988
2018-10-17T12:22:45.031Z,2992
2018-10-17T12:23:45.029Z,2976
2018-10-17T12:24:44.771Z,2972
2018-10-17T12:25:44.769Z,2960
2018-10-17T12:26:45.021Z,2844
2018-10-17T12:27:44.544Z,2820
2018-10-17T12:28:45.505Z,2716
2018-10-17T12:29:45.007Z,2716
2018-10-17T12:30:44.747Z,2748
2018-10-17T12:31:44.998Z,2912
2018-10-17T12:32:44.994Z,2956
2018-10-17T12:33:44.476Z,2968
2018-10-17T12:34:44.985Z,2976
2018-10-17T12:35:44.978Z,2988
2018-10-17T12:36:44.729Z,2992
2018-10-17T12:37:44.980Z,2988
2018-10-17T12:38:44.715Z,2972
2018-10-17T12:39:45.137Z,2944
2018-10-17T12:40:45.550Z,2900
2018-10-17T12:41:45.367Z,2864
2018-10-17T12:42:44.704Z,2836
2018-10-17T12:43:44.947Z,2812
2018-10-17T12:44:44.744Z,2792
2018-10-17T12:45:45.420Z,2772
2018-10-17T12:46:44.689Z,2760
2018-10-17T12:47:44.945Z,2752
2018-10-17T12:48:44.673Z,2748
2018-10-17T12:49:44.815Z,2744
2018-10-17T12:50:44.945Z,2740
2018-10-17T12:51:44.924Z,2744
2018-10-17T12:52:45.479Z,2748
2018-10-17T12:53:44.988Z,2752
2018-10-17T12:54:44.908Z,2760
2018-10-17T12:55:44.910Z,2768
2018-10-17T12:56:44.387Z,2772
2018-10-17T12:57:44.896Z,2780
2018-10-17T12:58:44.888Z,2784
2018-10-17T12:59:44.629Z,2780
2018-10-17T13:00:44.628Z,2780
2018-10-17T13:01:44.882Z,2780
2018-10-17T13:02:44.882Z,2780
2018-10-17T13:03:44.877Z,2776
2018-10-17T13:04:44.359Z,2776
2018-10-17T13:05:44.629Z,2800
2018-10-17T13:06:44.619Z,2832
2018-10-17T13:07:44.344Z,2872
2018-10-17T13:08:44.861Z,2904
2018-10-17T13:09:44.697Z,2932
2018-10-17T13:10:44.589Z,2964
2018-10-17T13:11:44.818Z,2988
2018-10-17T13:12:44.838Z,3012
2018-10-17T13:13:44.590Z,3044
2018-10-17T13:14:44.637Z,3080
2018-10-17T13:15:44.830Z,3120
2018-10-17T13:16:44.824Z,3160
2018-10-17T13:17:44.820Z,3216
2018-10-17T13:18:44.814Z,3296
2018-10-17T13:19:44.552Z,3344
2018-10-17T13:20:44.812Z,3496
2018-10-17T13:21:44.815Z,3560
2018-10-17T13:22:44.811Z,3560
2018-10-17T13:23:44.800Z,3692
2018-10-17T13:24:44.978Z,3792
2018-10-17T13:25:44.279Z,3888
2018-10-17T13:26:44.531Z,3968
2018-10-17T13:27:44.782Z,4048
2018-10-17T13:28:44.782Z,4092
2018-10-17T13:29:44.777Z,4156
2018-10-17T13:30:44.773Z,4100
2018-10-17T13:31:44.769Z,4036
2018-10-17T13:32:44.506Z,4220
2018-10-17T13:33:44.502Z,4160
2018-10-17T13:34:44.763Z,4008
2018-10-17T13:35:44.754Z,4008
2018-10-17T13:36:44.750Z,4100
2018-10-17T13:37:44.755Z,4252
2018-10-17T13:38:44.758Z,4136
2018-10-17T13:39:44.487Z,3920
2018-10-17T13:40:44.744Z,3588
2018-10-17T13:41:44.736Z,3336
2018-10-17T13:42:44.739Z,3240
2018-10-17T13:43:44.482Z,3316
2018-10-17T13:44:44.480Z,3220
2018-10-17T13:45:44.464Z,3088
2018-10-17T13:46:44.734Z,2972
2018-10-17T13:47:44.456Z,2868
2018-10-17T13:48:44.785Z,2764
2018-10-17T13:49:45.229Z,2684
2018-10-17T13:50:44.708Z,2624
2018-10-17T13:51:44.699Z,2580
2018-10-17T13:52:44.696Z,2548